Time;durP1;ratioP1;P1;durP2;ratioP2;P2;SDS_P1;SDS_P2;PMS_P1;PMS_P2;Temp;Humidity;BMP_temperature;BMP_pressure;BME280_temperature;BME280_humidity;BME280_pressure;Samples;Min_cycle;Max_cycle;Signal;HPM_P1;HPM_P2
2021/10/01 00:00:31;;;;;;;41.30;20.60;;;;;;;7.32;74.89;101432.34;1654719;84;21520;-78
2021/10/01 00:02:57;;;;;;;27.67;20.23;;;;;;;7.26;74.96;101427.72;1651115;85;21131;-77
2021/10/01 00:05:26;;;;;;;34.43;20.65;;;;;;;7.23;75.03;101430.27;1639211;85;21038;-74
2021/10/01 00:07:52;;;;;;;30.70;20.25;;;;;;;7.21;75.06;101429.61;1669291;84;21075;-79
2021/10/01 00:10:20;;;;;;;36.88;20.30;;;;;;;7.19;75.07;101431.66;1644969;86;21532;-83
2021/10/01 00:12:48;;;;;;;42.08;21.20;;;;;;;7.16;75.22;101427.16;1658708;85;22203;-80
2021/10/01 00:15:15;;;;;;;31.85;21.57;;;;;;;7.17;75.36;101427.49;1670567;84;21092;-81
2021/10/01 00:17:43;;;;;;;36.23;20.95;;;;;;;7.20;75.42;101427.95;1672741;84;21107;-83
2021/10/01 00:20:11;;;;;;;33.65;21.37;;;;;;;7.25;75.50;101424.20;1656722;85;21636;-77
2021/10/01 00:22:38;;;;;;;36.03;23.45;;;;;;;7.31;75.36;101423.47;1625922;86;21551;-80
2021/10/01 00:25:07;;;;;;;36.80;23.40;;;;;;;7.36;75.22;101422.91;1664849;85;21092;-77
2021/10/01 00:27:35;;;;;;;36.85;23.60;;;;;;;7.37;75.06;101423.23;1660772;84;21115;-80
2021/10/01 00:30:04;;;;;;;39.42;25.37;;;;;;;7.36;74.84;101422.41;1652457;85;21102;-79
2021/10/01 00:32:31;;;;;;;37.38;23.10;;;;;;;7.34;74.75;101416.91;1673170;85;21416;-75
2021/10/01 00:35:00;;;;;;;34.88;22.42;;;;;;;7.29;74.64;101418.80;1655941;85;20979;-76
2021/10/01 00:37:26;;;;;;;34.25;24.23;;;;;;;7.23;74.72;101414.22;1662309;84;20968;-77
2021/10/01 00:39:54;;;;;;;46.65;26.00;;;;;;;7.17;74.77;101414.95;1639437;85;21078;-75
2021/10/01 00:42:21;;;;;;;37.17;23.07;;;;;;;7.11;74.86;101411.66;1651741;85;21989;-76
2021/10/01 00:44:49;;;;;;;34.27;23.42;;;;;;;7.05;74.91;101417.75;1670904;84;21511;-75
2021/10/01 00:47:15;;;;;;;29.12;20.72;;;;;;;7.03;75.05;101413.61;1645309;85;21027;-75
2021/10/01 00:49:42;;;;;;;38.33;22.85;;;;;;;7.01;75.15;101411.95;1664607;85;21088;-74
2021/10/01 00:52:10;;;;;;;34.48;23.55;;;;;;;7.01;75.36;101412.45;1630345;86;21107;-73
2021/10/01 00:54:37;;;;;;;44.77;23.18;;;;;;;7.05;75.47;101411.06;1663560;85;21156;-73
2021/10/01 00:57:04;;;;;;;38.02;24.00;;;;;;;7.09;75.32;101413.72;1633403;84;21135;-72
2021/10/01 00:59:31;;;;;;;31.95;21.27;;;;;;;7.08;75.33;101407.20;1665156;85;21108;-75
2021/10/01 01:01:58;;;;;;;36.95;22.98;;;;;;;7.08;75.29;101412.05;1673178;84;21001;-75
2021/10/01 01:04:24;;;;;;;35.95;22.90;;;;;;;7.07;75.19;101406.87;1648328;86;21031;-75
2021/10/01 01:07:19;;;;;;;27.80;20.32;;;;;;;7.06;75.14;101404.70;1661124;85;21008;-74
2021/10/01 01:10:00;;;;;;;33.78;22.32;;;;;;;7.00;75.04;101406.27;1624452;86;25909;-73
2021/10/01 01:13:04;;;;;;;33.73;21.17;;;;;;;6.84;75.25;101405.12;1657374;86;20968;-75
2021/10/01 01:15:34;;;;;;;;;;;;;;;6.79;75.51;101407.52;1631047;86;21916;-75
2021/10/01 01:18:33;;;;;;;29.67;20.88;;;;;;;6.75;75.71;101404.89;1612871;87;20185;-75
2021/10/01 01:21:01;;;;;;;44.05;25.08;;;;;;;6.71;75.78;101404.09;1606414;88;21422;-74
2021/10/01 01:23:55;;;;;;;36.73;21.77;;;;;;;6.65;75.89;101404.31;1640173;85;21002;-74
2021/10/01 01:26:56;;;;;;;31.12;19.45;;;;;;;6.61;76.13;101400.36;1663871;85;20963;-75
2021/10/01 01:29:31;;;;;;;34.35;22.27;;;;;;;6.61;76.39;101399.02;1638342;86;21117;-73
2021/10/01 01:32:03;;;;;;;36.42;21.90;;;;;;;6.67;76.54;101396.92;1629575;86;21070;-73
2021/10/01 01:34:40;;;;;;;29.45;19.52;;;;;;;6.75;76.61;101399.54;1656513;85;21918;-71
2021/10/01 01:37:19;;;;;;;32.78;21.73;;;;;;;6.84;76.42;101404.29;1681423;84;21124;-74
2021/10/01 01:39:46;;;;;;;36.88;24.47;;;;;;;6.86;76.30;101403.08;1629482;86;21051;-73
2021/10/01 01:42:13;;;;;;;44.30;30.75;;;;;;;6.80;75.97;101400.33;1659356;86;21054;-74
2021/10/01 01:44:40;;;;;;;43.60;31.00;;;;;;;6.64;76.13;101403.98;1676979;85;21096;-74
2021/10/01 01:47:07;;;;;;;43.20;27.13;;;;;;;6.52;76.51;101396.91;1620556;87;21126;-74
2021/10/01 01:49:34;;;;;;;35.10;25.10;;;;;;;6.48;76.72;101398.78;1661464;85;21001;-72
2021/10/01 01:52:01;;;;;;;43.95;26.85;;;;;;;6.40;76.96;101399.70;1614734;86;21068;-74
2021/10/01 01:54:28;;;;;;;45.90;27.25;;;;;;;6.33;77.10;101401.42;1604312;87;21118;-75
2021/10/01 01:56:54;;;;;;;47.30;29.42;;;;;;;6.30;77.39;101400.95;1632021;87;21044;-75
2021/10/01 01:59:21;;;;;;;51.65;27.87;;;;;;;6.26;77.61;101403.67;1642314;86;21086;-75
2021/10/01 02:01:49;;;;;;;48.30;28.67;;;;;;;6.25;77.84;101404.17;1636280;86;21083;-74
2021/10/01 02:04:17;;;;;;;52.95;31.20;;;;;;;6.31;78.10;101401.29;1659587;85;21556;-73
2021/10/01 02:06:45;;;;;;;42.00;27.80;;;;;;;6.37;78.09;101402.75;1631156;86;21147;-74
2021/10/01 02:09:12;;;;;;;49.95;28.87;;;;;;;6.37;78.00;101400.58;1633708;85;21115;-73
2021/10/01 02:11:41;;;;;;;41.08;26.62;;;;;;;6.37;77.98;101401.91;1644471;86;20992;-74
2021/10/01 02:14:08;;;;;;;37.55;25.52;;;;;;;6.35;78.04;101411.94;1649641;85;21065;-73
2021/10/01 02:16:37;;;;;;;49.98;30.65;;;;;;;6.31;77.88;101405.30;1663597;85;21273;-74
2021/10/01 02:19:03;;;;;;;51.33;28.95;;;;;;;6.22;77.97;101404.54;1669200;85;21556;-74
2021/10/01 02:21:30;;;;;;;43.33;29.20;;;;;;;6.15;78.08;101411.59;1630654;86;21509;-74
2021/10/01 02:23:57;;;;;;;44.35;28.27;;;;;;;6.12;78.26;101410.13;1622081;87;21082;-74
2021/10/01 02:26:37;;;;;;;49.65;27.40;;;;;;;6.11;78.46;101416.47;1580805;86;20932;-75
2021/10/01 02:29:12;;;;;;;43.80;26.52;;;;;;;6.16;78.65;101411.92;1615754;86;21580;-74
2021/10/01 02:32:04;;;;;;;40.83;28.65;;;;;;;6.23;78.56;101414.23;1635142;85;21488;-75
2021/10/01 02:34:40;;;;;;;36.77;24.27;;;;;;;6.22;78.46;101418.41;1625496;87;21035;-74
2021/10/01 02:37:17;;;;;;;32.48;21.60;;;;;;;6.16;78.47;101419.11;1639233;86;21421;-76
2021/10/01 02:39:48;;;;;;;35.10;25.17;;;;;;;6.08;78.60;101414.67;1640093;86;20916;-75
2021/10/01 02:42:15;;;;;;;45.67;25.27;;;;;;;6.01;78.68;101415.88;1627950;86;21064;-78
2021/10/01 02:44:43;;;;;;;44.05;25.25;;;;;;;6.01;78.88;101417.20;1672089;85;21037;-73
2021/10/01 02:47:09;;;;;;;44.98;30.15;;;;;;;6.02;78.90;101418.88;1676381;85;21036;-73
2021/10/01 02:49:36;;;;;;;42.23;26.02;;;;;;;6.00;78.78;101420.88;1640992;86;21952;-72
2021/10/01 02:52:30;;;;;;;36.77;23.80;;;;;;;5.98;78.98;101422.08;1640197;85;21520;-73
2021/10/01 02:55:06;;;;;;;38.20;23.95;;;;;;;6.02;79.08;101426.06;1639382;85;21037;-73
2021/10/01 02:57:51;;;;;;;46.88;25.08;;;;;;;6.09;79.15;101423.82;1672899;85;21061;-73
2021/10/01 03:00:18;;;;;;;;;;;;;;;6.13;78.97;101422.98;1650974;84;21244;-73
2021/10/01 03:02:45;;;;;;;44.42;29.95;;;;;;;6.18;78.92;101427.29;1651035;85;21164;-76
2021/10/01 03:05:11;;;;;;;36.70;25.75;;;;;;;6.21;78.71;101428.75;1672259;85;21081;-73
2021/10/01 03:07:40;;;;;;;42.88;28.38;;;;;;;6.17;78.58;101426.95;1651017;85;21060;-74
2021/10/01 03:10:08;;;;;;;47.23;24.72;;;;;;;6.10;78.39;101425.48;1633035;85;21488;-75
2021/10/01 03:12:34;;;;;;;30.23;22.48;;;;;;;6.02;78.53;101431.40;1648148;85;21177;-74
2021/10/01 03:15:04;;;;;;;34.27;22.48;;;;;;;5.97;78.65;101431.09;1667787;85;21055;-75
2021/10/01 03:17:31;;;;;;;34.00;21.93;;;;;;;5.87;78.71;101431.33;1595333;88;20998;-75
2021/10/01 03:19:59;;;;;;;38.23;22.00;;;;;;;5.83;78.99;101425.98;1624194;87;21047;-76
2021/10/01 03:22:31;;;;;;;29.20;20.00;;;;;;;5.85;79.15;101428.48;1676086;85;21058;-75
2021/10/01 03:24:55;;;;;;;32.38;17.80;;;;;;;5.87;79.23;101429.16;1683143;84;21551;-74
2021/10/01 03:27:24;;;;;;;34.67;20.88;;;;;;;5.84;79.13;101423.65;1654697;84;21948;-76
2021/10/01 03:29:51;;;;;;;41.60;22.55;;;;;;;5.82;79.27;101432.33;1619794;85;21585;-72
2021/10/01 03:32:19;;;;;;;34.73;20.52;;;;;;;5.80;79.33;101435.69;1656927;85;20942;-72
2021/10/01 03:34:46;;;;;;;54.42;22.85;;;;;;;5.84;79.34;101430.83;1673620;85;21025;-69
2021/10/01 03:37:12;;;;;;;40.00;21.75;;;;;;;5.85;79.36;101435.97;1656451;84;21030;-73
2021/10/01 03:39:39;;;;;;;40.28;24.10;;;;;;;5.88;79.24;101434.83;1664150;85;22466;-73
2021/10/01 03:42:07;;;;;;;30.55;19.35;;;;;;;5.86;79.18;101431.46;1665719;86;20964;-73
2021/10/01 03:44:34;;;;;;;31.80;20.40;;;;;;;5.84;79.19;101433.50;1638315;85;21031;-73
2021/10/01 03:47:00;;;;;;;31.50;21.68;;;;;;;5.83;79.21;101432.66;1661203;84;21126;-73
2021/10/01 03:49:26;;;;;;;32.53;21.37;;;;;;;5.84;79.20;101434.83;1641621;86;21101;-75
2021/10/01 03:51:54;;;;;;;31.07;21.17;;;;;;;5.85;79.17;101435.97;1655974;85;21167;-74
2021/10/01 03:54:21;;;;;;;30.48;20.08;;;;;;;5.88;79.07;101433.00;1672234;85;21002;-73
2021/10/01 03:56:48;;;;;;;33.78;21.10;;;;;;;5.89;78.90;101437.84;1671014;84;21019;-72
2021/10/01 03:59:15;;;;;;;33.63;22.65;;;;;;;5.94;79.02;101438.14;1667977;85;21061;-72
2021/10/01 04:01:42;;;;;;;42.33;25.35;;;;;;;6.00;78.93;101446.75;1663795;84;20961;-72
2021/10/01 04:04:09;;;;;;;40.58;23.77;;;;;;;6.07;78.82;101449.89;1663656;86;21103;-72
2021/10/01 04:06:36;;;;;;;54.70;25.62;;;;;;;6.12;78.55;101451.53;1663654;86;20922;-72
2021/10/01 04:09:05;;;;;;;50.83;32.13;;;;;;;6.12;78.23;101454.20;1632252;86;21024;-74
2021/10/01 04:11:37;;;;;;;33.40;21.27;;;;;;;6.11;78.04;101455.70;1663643;86;21081;-73
2021/10/01 04:14:03;;;;;;;36.20;22.87;;;;;;;6.06;77.97;101452.23;1639131;86;21025;-72
2021/10/01 04:16:31;;;;;;;44.70;23.27;;;;;;;6.01;77.89;101446.59;1650970;85;20987;-68
2021/10/01 04:18:59;;;;;;;40.10;26.50;;;;;;;5.93;78.00;101451.99;1639683;85;20936;-70
2021/10/01 04:21:28;;;;;;;36.30;22.17;;;;;;;5.88;78.06;101452.19;1600752;87;20999;-69
2021/10/01 04:23:54;;;;;;;36.50;22.42;;;;;;;5.83;78.11;101458.03;1616779;87;21044;-70
2021/10/01 04:26:32;;;;;;;38.02;22.90;;;;;;;5.83;78.40;101447.34;1643144;86;21133;-69
2021/10/01 04:28:59;;;;;;;33.53;19.07;;;;;;;5.89;78.53;101452.02;1640924;86;21202;-73
2021/10/01 04:31:26;;;;;;;37.90;20.45;;;;;;;5.93;78.49;101461.84;1665452;84;21514;-69
2021/10/01 04:33:53;;;;;;;40.78;20.85;;;;;;;5.96;78.48;101454.30;1639883;86;21122;-68
2021/10/01 04:36:22;;;;;;;48.00;27.70;;;;;;;6.00;78.53;101458.27;1666138;85;21596;-70
2021/10/01 04:38:49;;;;;;;63.05;35.30;;;;;;;6.00;78.30;101452.93;1640271;85;20988;-69
2021/10/01 04:41:16;;;;;;;47.55;26.80;;;;;;;5.94;78.32;101455.50;1619250;85;21854;-69
2021/10/01 04:43:42;;;;;;;36.95;23.10;;;;;;;5.90;78.44;101452.33;1629818;86;21564;-70
2021/10/01 04:46:09;;;;;;;36.58;21.60;;;;;;;5.86;78.60;101452.82;1627176;86;21226;-70
2021/10/01 04:48:36;;;;;;;36.73;22.65;;;;;;;5.84;78.76;101464.20;1644323;85;20984;-70
2021/10/01 04:51:02;;;;;;;37.33;23.42;;;;;;;5.82;78.92;101465.70;1637209;86;20968;-70
2021/10/01 04:53:29;;;;;;;36.65;22.37;;;;;;;5.79;78.94;101466.06;1634677;87;21208;-69
2021/10/01 04:55:56;;;;;;;36.90;24.20;;;;;;;5.80;79.21;101464.23;1663221;84;21518;-72
2021/10/01 04:58:23;;;;;;;36.08;22.05;;;;;;;5.83;79.38;101470.54;1641455;85;21040;-70
2021/10/01 05:01:03;;;;;;;27.32;19.23;;;;;;;5.86;79.48;101471.52;1585767;87;21012;-70
2021/10/01 05:03:48;;;;;;;49.00;30.52;;;;;;;5.83;79.54;101474.05;1640132;85;20981;-70
2021/10/01 05:06:19;;;;;;;32.85;24.55;;;;;;;5.79;79.69;101478.08;1645868;84;21222;-67
2021/10/01 05:09:04;;;;;;;36.25;24.57;;;;;;;5.80;79.99;101480.25;1632525;86;21539;-68
2021/10/01 05:11:49;;;;;;;34.18;25.27;;;;;;;5.79;80.03;101481.25;1651022;85;21056;-68
2021/10/01 05:14:35;;;;;;;31.07;23.32;;;;;;;5.82;80.19;101487.06;1642814;85;20952;-69
2021/10/01 05:17:22;;;;;;;48.02;25.68;;;;;;;5.86;80.19;101491.54;1643283;85;21080;-68
2021/10/01 05:20:10;;;;;;;44.55;27.60;;;;;;;5.86;80.04;101491.04;1651242;85;21153;-69
2021/10/01 05:22:39;;;;;;;51.58;27.25;;;;;;;5.87;80.20;101489.23;1638862;87;21011;-70
2021/10/01 05:25:06;;;;;;;35.92;24.52;;;;;;;5.88;80.32;101490.91;1612024;87;21011;-69
2021/10/01 05:27:33;;;;;;;55.48;27.22;;;;;;;5.91;80.47;101495.39;1640134;87;20960;-72
2021/10/01 05:30:00;;;;;;;51.45;29.52;;;;;;;5.97;80.43;101493.86;1662154;85;21104;-70
2021/10/01 05:32:26;;;;;;;49.93;29.15;;;;;;;6.06;80.46;101500.81;1663149;86;21201;-69
2021/10/01 05:34:52;;;;;;;46.60;23.87;;;;;;;6.19;80.40;101500.25;1637848;86;21133;-69
2021/10/01 05:37:19;;;;;;;54.05;27.30;;;;;;;6.27;80.06;101498.36;1663300;86;20994;-69
2021/10/01 05:39:45;;;;;;;46.10;27.37;;;;;;;6.28;79.76;101496.02;1664073;84;21544;-68
2021/10/01 05:42:12;;;;;;;48.25;29.27;;;;;;;6.25;79.67;101499.02;1663342;86;21026;-69
2021/10/01 05:44:39;;;;;;;59.70;30.55;;;;;;;6.26;79.79;101496.69;1638128;86;21207;-69
2021/10/01 05:47:09;;;;;;;43.33;27.87;;;;;;;6.37;79.93;101502.97;1660031;86;21009;-69
2021/10/01 05:49:52;;;;;;;44.67;27.82;;;;;;;6.50;80.57;101503.70;1634828;87;21010;-70
2021/10/01 05:52:50;;;;;;;62.88;34.75;;;;;;;6.56;80.33;101505.66;1626611;86;21023;-70
2021/10/01 05:55:24;;;;;;;61.05;32.85;;;;;;;6.64;80.83;101506.09;1653119;85;21055;-69
2021/10/01 05:58:06;;;;;;;53.35;31.05;;;;;;;6.77;80.38;101508.98;1607022;86;21255;-72
2021/10/01 06:00:36;;;;;;;61.25;31.75;;;;;;;6.87;79.69;101507.72;1666210;85;21036;-71
2021/10/01 06:03:02;;;;;;;55.60;27.37;;;;;;;6.94;79.26;101509.17;1639624;85;21063;-72
2021/10/01 06:05:28;;;;;;;46.28;25.55;;;;;;;7.01;78.93;101509.59;1633083;87;21073;-72
2021/10/01 06:07:56;;;;;;;53.23;28.62;;;;;;;7.09;78.36;101511.87;1664136;84;21063;-71
2021/10/01 06:10:25;;;;;;;37.10;24.37;;;;;;;7.12;78.06;101519.03;1666378;85;21031;-71
2021/10/01 06:12:51;;;;;;;53.68;25.85;;;;;;;7.16;77.85;101515.47;1637162;86;21106;-70
2021/10/01 06:15:18;;;;;;;49.27;25.70;;;;;;;7.22;77.62;101516.08;1664149;84;20985;-69
2021/10/01 06:17:46;;;;;;;41.30;23.32;;;;;;;7.32;77.59;101516.65;1664581;85;21043;-70
2021/10/01 06:20:12;;;;;;;47.27;23.35;;;;;;;7.45;77.44;101519.00;1647395;86;21009;-69
2021/10/01 06:22:38;;;;;;;40.90;23.22;;;;;;;7.56;76.90;101519.05;1644503;85;21953;-74
2021/10/01 06:25:06;;;;;;;54.08;22.85;;;;;;;7.67;76.60;101523.12;1644264;85;21099;-69
2021/10/01 06:27:33;;;;;;;40.30;20.08;;;;;;;7.77;76.11;101521.79;1648716;85;20963;-70
2021/10/01 06:29:59;;;;;;;38.75;22.07;;;;;;;7.84;75.87;101520.04;1614124;86;21057;-69
2021/10/01 06:32:30;;;;;;;38.15;21.30;;;;;;;7.87;75.42;101522.84;1663654;86;21044;-69
2021/10/01 06:34:54;;;;;;;43.20;21.82;;;;;;;7.89;75.30;101514.13;1661902;84;21325;-69
2021/10/01 06:37:21;;;;;;;42.27;22.22;;;;;;;7.91;75.14;101521.98;1636518;86;21014;-70
2021/10/01 06:39:47;;;;;;;40.70;22.42;;;;;;;7.95;75.12;101521.92;1617913;86;20977;-71
2021/10/01 06:42:16;;;;;;;34.00;21.20;;;;;;;8.00;75.10;101515.49;1639315;86;21005;-71
2021/10/01 06:44:45;;;;;;;39.70;21.30;;;;;;;8.07;75.10;101520.41;1652950;84;21019;-69
2021/10/01 06:47:17;;;;;;;38.80;21.37;;;;;;;8.12;75.09;101520.67;1645648;86;21472;-73
2021/10/01 06:50:09;;;;;;;37.73;23.10;;;;;;;8.18;74.96;101522.59;1611455;87;21496;-69
2021/10/01 06:53:02;;;;;;;43.15;24.35;;;;;;;8.26;74.92;101526.49;1637467;87;21111;-68
2021/10/01 08:20:10;;;;;;;19.02;12.60;;;;;;;11.94;65.07;101506.83;1664030;85;21035;-70
2021/10/01 08:22:37;;;;;;;17.32;11.18;;;;;;;12.09;64.07;101514.92;1657525;86;21152;-69
2021/10/01 08:25:05;;;;;;;11.95;9.58;;;;;;;12.18;62.14;101512.28;1626850;87;21043;-69
2021/10/01 08:27:31;;;;;;;12.28;8.23;;;;;;;12.29;60.02;101513.98;1640010;87;20995;-69
2021/10/01 08:29:58;;;;;;;15.15;9.15;;;;;;;12.37;58.58;101511.89;1643827;85;21687;-69
2021/10/01 08:32:24;;;;;;;15.63;9.38;;;;;;;12.46;57.95;101515.15;1665788;85;21082;-71
2021/10/01 08:34:50;;;;;;;10.53;8.73;;;;;;;12.55;57.08;101504.39;1663971;84;22358;-69
2021/10/01 08:37:17;;;;;;;21.00;8.45;;;;;;;12.63;56.81;101501.42;1638005;86;21081;-70
2021/10/01 08:39:43;;;;;;;16.17;8.50;;;;;;;12.71;56.68;101504.39;1663189;86;21541;-67
2021/10/01 08:42:12;;;;;;;12.50;8.35;;;;;;;12.79;55.38;101501.41;1641029;84;20967;-71
2021/10/01 08:44:39;;;;;;;22.75;8.80;;;;;;;12.87;55.07;101488.97;1648410;85;21532;-69
2021/10/01 08:47:07;;;;;;;12.75;8.30;;;;;;;12.96;54.91;101493.88;1640217;86;21142;-69
2021/10/01 08:49:34;;;;;;;11.48;7.53;;;;;;;13.05;54.75;101493.89;1616824;85;21024;-78
2021/10/01 08:52:06;;;;;;;11.35;7.90;;;;;;;13.15;53.92;101488.02;1662676;85;20958;-69
2021/10/01 08:54:34;;;;;;;14.23;7.70;;;;;;;13.23;53.55;101493.15;1639757;86;21052;-69
2021/10/01 08:57:00;;;;;;;16.42;7.42;;;;;;;13.32;53.36;101490.98;1636268;85;21504;-70
2021/10/01 08:59:27;;;;;;;24.07;7.75;;;;;;;13.42;52.13;101496.70;1639876;86;21387;-71
2021/10/01 09:01:55;;;;;;;9.38;6.90;;;;;;;13.48;51.91;101491.72;1659822;84;21013;-70
2021/10/01 09:04:21;;;;;;;17.57;7.97;;;;;;;13.56;52.15;101489.26;1630183;86;21529;-70
2021/10/01 09:06:49;;;;;;;17.07;6.70;;;;;;;13.66;51.41;101498.50;1649582;86;21048;-70
2021/10/01 09:09:17;;;;;;;10.95;5.85;;;;;;;13.78;50.50;101497.20;1652994;85;21030;-69
2021/10/01 09:11:47;;;;;;;7.80;6.53;;;;;;;13.87;49.67;101489.08;1629352;86;21216;-68
2021/10/01 09:14:19;;;;;;;8.88;6.87;;;;;;;13.96;49.27;101495.30;1651494;86;22279;-70
2021/10/01 09:16:47;;;;;;;8.13;5.75;;;;;;;14.04;48.87;101500.11;1646710;86;21546;-71
2021/10/01 09:19:14;;;;;;;8.03;5.75;;;;;;;14.13;49.12;101495.51;1654385;84;20957;-72
2021/10/01 09:21:49;;;;;;;7.47;6.45;;;;;;;14.20;48.29;101495.39;1648405;86;20921;-70
2021/10/01 09:24:19;;;;;;;6.47;5.83;;;;;;;14.29;48.18;101493.49;1668341;85;23369;-69
2021/10/01 09:26:49;;;;;;;9.53;5.58;;;;;;;14.36;47.54;101489.38;1681179;85;20995;-70
2021/10/01 09:29:35;;;;;;;11.95;6.97;;;;;;;14.44;47.53;101489.56;1675452;85;21559;-71
2021/10/01 09:32:15;;;;;;;7.00;5.85;;;;;;;14.53;47.30;101488.20;1677955;85;21026;-72
2021/10/01 09:34:44;;;;;;;7.75;6.78;;;;;;;14.61;46.68;101483.80;1678446;83;21038;-74
2021/10/01 09:37:17;;;;;;;9.60;6.90;;;;;;;14.67;46.68;101482.34;1671317;84;33380;-71
2021/10/01 09:39:46;;;;;;;6.05;5.47;;;;;;;14.76;46.81;101480.95;1639812;85;21183;-69
2021/10/01 09:42:21;;;;;;;9.40;6.62;;;;;;;14.80;46.14;101479.41;1573853;88;21127;-69
2021/10/01 09:44:55;;;;;;;14.30;7.25;;;;;;;14.81;45.06;101476.18;1625963;88;21539;-71
2021/10/01 09:47:38;;;;;;;8.70;6.47;;;;;;;14.81;45.81;101471.59;1625156;88;21176;-69
2021/10/01 09:50:12;;;;;;;7.20;6.50;;;;;;;14.81;44.52;101475.66;1586192;88;22111;-70
2021/10/01 09:52:45;;;;;;;12.25;6.58;;;;;;;14.70;45.23;101472.91;1626938;88;20943;-68
2021/10/01 09:55:13;;;;;;;7.70;5.17;;;;;;;14.70;45.73;101469.68;1619219;88;21075;-70
2021/10/01 09:58:00;;;;;;;8.03;7.22;;;;;;;14.78;45.70;101472.03;1560072;90;21034;-69
2021/10/01 10:00:47;;;;;;;11.40;7.65;;;;;;;14.82;45.42;101463.73;1559731;90;21098;-70
2021/10/01 10:03:19;;;;;;;6.87;5.15;;;;;;;14.89;45.55;101473.11;1565530;90;21962;-69
2021/10/01 10:06:05;;;;;;;8.55;6.12;;;;;;;15.00;45.54;101470.95;1560437;90;21577;-73
2021/10/01 10:08:41;;;;;;;9.03;6.85;;;;;;;15.04;44.95;101462.64;1560966;90;21131;-76
2021/10/01 10:11:11;;;;;;;9.53;5.90;;;;;;;15.12;45.04;101461.44;1565045;90;21586;-78
2021/10/01 10:13:53;;;;;;;6.53;5.50;;;;;;;15.23;45.30;101460.09;1567032;90;21194;-77
2021/10/01 10:16:23;;;;;;;6.67;5.87;;;;;;;15.36;44.81;101459.53;1636591;87;21165;-77
2021/10/01 10:18:57;;;;;;;6.72;5.80;;;;;;;15.45;44.10;101463.00;1617642;87;21589;-76
2021/10/01 10:21:30;;;;;;;9.48;5.22;;;;;;;15.52;43.69;101460.20;1617739;88;20999;-89
2021/10/01 10:23:57;;;;;;;7.08;5.25;;;;;;;15.52;43.22;101457.48;1609927;87;21564;-89
2021/10/01 10:26:24;;;;;;;15.13;8.63;;;;;;;15.47;42.71;101452.75;1563841;90;21205;-80
2021/10/01 10:28:55;;;;;;;6.78;5.15;;;;;;;15.48;43.17;101450.86;1601299;87;21060;-79
2021/10/01 10:31:25;;;;;;;6.30;5.45;;;;;;;15.55;42.50;101452.40;1590063;89;21136;-74
2021/10/01 10:33:52;;;;;;;6.00;5.35;;;;;;;15.56;41.75;101455.94;1571884;89;21602;-73
2021/10/01 10:36:41;;;;;;;7.80;5.35;;;;;;;15.52;42.14;101447.47;1625789;87;21087;-71
2021/10/01 10:39:17;;;;;;;9.90;5.72;;;;;;;15.54;42.59;101447.23;1595330;88;21081;-74
2021/10/01 10:42:05;;;;;;;9.10;5.30;;;;;;;15.66;42.82;101437.16;1597407;88;21089;-71
2021/10/01 10:45:15;;;;;;;9.50;5.90;;;;;;;15.82;41.92;101435.58;1587446;89;21593;-72
2021/10/01 10:47:54;;;;;;;5.62;5.12;;;;;;;15.96;41.56;101432.34;1574756;89;21204;-73
2021/10/01 10:50:26;;;;;;;6.78;6.08;;;;;;;16.13;40.71;101441.86;1594122;88;21580;-75
2021/10/01 10:53:12;;;;;;;5.85;4.90;;;;;;;16.21;40.27;101441.45;1599271;88;21045;-90
2021/10/01 10:55:52;;;;;;;16.65;5.58;;;;;;;16.26;40.59;101440.76;1575588;88;21060;-80
2021/10/01 10:58:33;;;;;;;6.75;5.33;;;;;;;16.35;40.96;101439.28;1580311;88;20984;-71
2021/10/01 11:01:23;;;;;;;13.08;5.42;;;;;;;16.47;40.62;101433.23;1596275;88;21473;-75
2021/10/01 11:04:19;;;;;;;8.23;5.10;;;;;;;16.52;40.15;101425.99;1616908;86;21045;-79
2021/10/01 11:06:46;;;;;;;6.22;5.60;;;;;;;16.66;40.31;101421.61;1595230;88;21105;-79
2021/10/01 11:09:24;;;;;;;5.15;4.53;;;;;;;16.79;39.45;101416.66;1570082;89;21069;-80
2021/10/01 11:11:53;;;;;;;7.40;4.70;;;;;;;16.75;38.63;101414.16;1584062;90;21058;-79
2021/10/01 11:14:23;;;;;;;6.83;5.00;;;;;;;16.74;38.70;101413.06;1565851;91;20980;-78
2021/10/01 11:17:02;;;;;;;5.57;4.70;;;;;;;16.76;38.08;101413.63;1568223;89;21010;-73
2021/10/01 11:19:43;;;;;;;8.08;4.17;;;;;;;16.80;38.22;101406.61;1599463;88;21005;-76
2021/10/01 11:22:38;;;;;;;6.58;4.53;;;;;;;16.83;38.06;101404.24;1593717;88;21280;-71
2021/10/01 11:25:17;;;;;;;13.10;4.83;;;;;;;16.88;38.60;101400.21;1592036;88;21090;-83
2021/10/01 11:27:57;;;;;;;15.35;5.62;;;;;;;16.98;38.34;101402.25;1568162;88;21370;-81
2021/10/01 11:30:26;;;;;;;9.05;5.40;;;;;;;17.05;38.55;101402.08;1545184;91;21049;-77
2021/10/01 11:32:53;;;;;;;7.53;4.28;;;;;;;17.10;38.35;101393.47;1582591;88;21083;-79
2021/10/01 11:35:20;;;;;;;9.88;4.50;;;;;;;17.12;38.13;101399.45;1617420;88;21185;-82
2021/10/01 11:37:48;;;;;;;7.78;4.15;;;;;;;17.22;37.94;101391.97;1618258;87;21090;-78
2021/10/01 11:40:28;;;;;;;6.42;3.98;;;;;;;17.28;37.85;101396.41;1609537;87;21076;-71
2021/10/01 11:42:58;;;;;;;12.43;4.53;;;;;;;17.32;37.37;101390.75;1586385;88;21030;-76
2021/10/01 11:45:29;;;;;;;7.92;6.00;;;;;;;17.32;37.25;101389.38;1561641;90;21012;-78
2021/10/01 11:48:02;;;;;;;7.50;5.15;;;;;;;17.28;37.35;101386.36;1589039;87;21554;-76
2021/10/01 11:50:39;;;;;;;8.50;5.08;;;;;;;17.33;37.26;101380.16;1627337;86;21086;-80
2021/10/01 11:53:26;;;;;;;7.60;4.37;;;;;;;17.40;37.26;101379.44;1621565;87;21070;-80
2021/10/01 11:56:02;;;;;;;8.33;4.50;;;;;;;17.46;37.16;101383.05;1596512;88;22538;-79
2021/10/01 11:58:32;;;;;;;6.95;4.65;;;;;;;17.53;36.77;101376.33;1623324;87;21042;-77
2021/10/01 12:01:11;;;;;;;7.97;6.08;;;;;;;17.52;36.24;101379.30;1642342;86;21206;-77
2021/10/01 12:03:56;;;;;;;7.87;4.45;;;;;;;17.37;36.68;101370.41;1544691;91;21147;-77
2021/10/01 12:06:34;;;;;;;6.72;4.67;;;;;;;17.34;36.41;101368.20;1625257;87;21058;-74
2021/10/01 12:09:04;;;;;;;4.50;4.03;;;;;;;17.37;36.56;101367.16;1578434;88;21539;-74
2021/10/01 12:11:39;;;;;;;5.25;3.90;;;;;;;17.48;36.48;101374.08;1633275;87;21073;-73
2021/10/01 12:14:14;;;;;;;8.00;7.20;;;;;;;17.52;36.07;101366.52;1644242;87;21267;-75
2021/10/01 12:16:55;;;;;;;10.25;5.75;;;;;;;17.61;35.43;101370.45;1646875;87;21009;-74
2021/10/01 12:19:24;;;;;;;9.30;4.33;;;;;;;17.71;34.96;101365.13;1603286;88;21575;-74
2021/10/01 12:22:12;;;;;;;6.62;5.00;;;;;;;17.70;34.90;101362.11;1542576;91;21528;-75
2021/10/01 12:24:53;;;;;;;19.65;6.20;;;;;;;17.63;35.27;101358.79;1613249;88;21065;-80
2021/10/01 12:27:44;;;;;;;13.32;5.22;;;;;;;17.65;35.80;101353.89;1597075;87;21142;-77
2021/10/01 12:30:11;;;;;;;6.90;4.53;;;;;;;17.82;35.24;101354.63;1637009;87;21184;-80
2021/10/01 12:32:37;;;;;;;5.25;4.00;;;;;;;17.98;35.19;101354.78;1628640;87;20971;-78
2021/10/01 12:35:05;;;;;;;14.58;9.95;;;;;;;18.01;34.80;101351.00;1616195;87;20944;-75
2021/10/01 12:37:40;;;;;;;4.53;4.05;;;;;;;18.05;34.56;101349.40;1611459;87;20973;-71
2021/10/01 12:40:09;;;;;;;7.28;5.12;;;;;;;18.13;34.52;101343.47;1613001;88;21135;-74
2021/10/01 12:42:38;;;;;;;5.40;4.10;;;;;;;18.24;33.90;101340.30;1600429;88;21500;-75
2021/10/01 12:45:09;;;;;;;4.62;4.10;;;;;;;18.28;34.22;101337.33;1628370;88;21035;-74
2021/10/01 12:47:40;;;;;;;20.92;6.60;;;;;;;18.29;34.20;101335.71;1593749;89;21064;-76
2021/10/01 12:50:30;;;;;;;14.98;5.12;;;;;;;18.25;34.08;101339.22;1565294;90;21595;-75
2021/10/01 12:52:59;;;;;;;6.15;4.10;;;;;;;18.28;33.93;101342.23;1558355;89;21305;-73
2021/10/01 12:55:26;;;;;;;9.23;4.62;;;;;;;18.28;33.99;101338.15;1546532;91;21707;-78
2021/10/01 12:57:53;;;;;;;6.60;3.98;;;;;;;18.35;33.52;101337.11;1572871;89;20968;-75
2021/10/01 13:00:30;;;;;;;5.20;4.42;;;;;;;18.39;33.58;101336.87;1640408;85;21079;-72
2021/10/01 13:03:08;;;;;;;6.40;3.45;;;;;;;18.48;33.53;101338.02;1647997;85;21080;-70
2021/10/01 13:05:43;;;;;;;6.33;4.17;;;;;;;18.52;33.31;101334.51;1623412;87;21781;-69